Time;durP1;ratioP1;P1;durP2;ratioP2;P2;SDS_P1;SDS_P2;PMS_P1;PMS_P2;Temp;Humidity;BMP_temperature;BMP_pressure;BME280_temperature;BME280_humidity;BME280_pressure;Samples;Min_cycle;Max_cycle;Signal;HPM_P1;HPM_P2
2021/04/19 00:00:45;;;;;;;17.95;11.48;;;;;;;;;;4909949;29;20040;-79
2021/04/19 00:03:13;;;;;;;16.65;9.77;;;;;;;;;;4905419;29;20036;-79
2021/04/19 00:05:39;;;;;;;18.33;10.98;;;;;;;;;;4903421;29;20484;-79
2021/04/19 00:08:04;;;;;;;16.20;11.32;;;;;;;;;;4907912;29;20149;-79
2021/04/19 00:10:30;;;;;;;19.15;11.43;;;;;;;;;;4910152;29;20039;-79
2021/04/19 00:12:55;;;;;;;19.35;11.38;;;;;;;;;;4907194;29;20048;-79
2021/04/19 00:15:21;;;;;;;22.63;11.65;;;;;;;;;;4909333;29;20028;-79
2021/04/19 00:17:46;;;;;;;20.63;12.68;;;;;;;;;;4901398;29;20036;-79
2021/04/19 00:20:12;;;;;;;18.10;12.07;;;;;;;;;;4904465;29;20028;-79
2021/04/19 00:22:37;;;;;;;16.95;11.30;;;;;;;;;;4910045;29;20502;-79
2021/04/19 00:25:03;;;;;;;15.67;10.73;;;;;;;;;;4907731;29;20455;-79
2021/04/19 00:27:28;;;;;;;18.50;11.55;;;;;;;;;;4909145;29;20779;-79
2021/04/19 00:29:54;;;;;;;15.35;10.23;;;;;;;;;;4906109;29;20443;-79
2021/04/19 00:32:19;;;;;;;16.57;10.73;;;;;;;;;;4904308;29;20027;-79
2021/04/19 00:34:44;;;;;;;16.13;9.70;;;;;;;;;;4904545;29;20556;-80
2021/04/19 00:37:10;;;;;;;16.98;10.13;;;;;;;;;;4909031;29;20035;-79
2021/04/19 00:39:35;;;;;;;14.60;10.43;;;;;;;;;;4907205;29;20649;-79
2021/04/19 00:42:00;;;;;;;19.50;11.30;;;;;;;;;;4907656;29;20135;-79
2021/04/19 00:44:25;;;;;;;15.43;10.25;;;;;;;;;;4908041;29;20028;-79
2021/04/19 00:46:51;;;;;;;18.53;10.57;;;;;;;;;;4905387;29;20032;-79
2021/04/19 00:49:16;;;;;;;16.75;11.30;;;;;;;;;;4899203;29;20608;-79
2021/04/19 00:51:41;;;;;;;15.93;10.77;;;;;;;;;;4907726;29;20115;-79
2021/04/19 00:54:09;;;;;;;18.02;11.18;;;;;;;;;;4881753;29;20038;-79
2021/04/19 00:56:35;;;;;;;18.15;10.68;;;;;;;;;;4909250;29;20527;-79
2021/04/19 00:59:00;;;;;;;18.65;10.77;;;;;;;;;;4907827;29;20434;-79
2021/04/19 01:01:27;;;;;;;15.90;11.10;;;;;;;;;;4905525;29;20063;-79
2021/04/19 01:03:52;;;;;;;18.75;11.48;;;;;;;;;;4884565;29;20032;-79
2021/04/19 01:06:17;;;;;;;19.95;11.20;;;;;;;;;;4909097;29;20028;-79
2021/04/19 01:08:42;;;;;;;17.77;11.37;;;;;;;;;;4907998;29;20035;-79
2021/04/19 01:11:07;;;;;;;16.10;10.87;;;;;;;;;;4907824;29;20308;-79
2021/04/19 01:13:33;;;;;;;17.20;10.53;;;;;;;;;;4909110;29;20407;-80
2021/04/19 01:15:58;;;;;;;19.00;10.67;;;;;;;;;;4906866;29;20028;-80
2021/04/19 01:18:23;;;;;;;18.45;12.30;;;;;;;;;;4905554;29;20315;-79
2021/04/19 01:20:49;;;;;;;19.58;12.68;;;;;;;;;;4901996;29;20493;-79
2021/04/19 01:23:15;;;;;;;16.40;10.50;;;;;;;;;;4903410;29;20407;-79
2021/04/19 01:25:40;;;;;;;16.73;11.90;;;;;;;;;;4904943;29;20028;-79
2021/04/19 01:28:06;;;;;;;17.05;11.40;;;;;;;;;;4895238;29;20248;-79
2021/04/19 01:30:37;;;;;;;15.85;11.25;;;;;;;;;;4901891;29;20031;-79
2021/04/19 01:33:02;;;;;;;18.73;11.20;;;;;;;;;;4903184;29;20136;-79
2021/04/19 01:35:28;;;;;;;16.83;11.57;;;;;;;;;;4903125;29;20749;-79
2021/04/19 01:37:53;;;;;;;17.02;11.60;;;;;;;;;;4906485;29;20028;-79
2021/04/19 01:40:18;;;;;;;17.67;11.27;;;;;;;;;;4888382;29;20028;-79
2021/04/19 01:42:44;;;;;;;18.53;11.47;;;;;;;;;;4909026;29;20525;-78
2021/04/19 01:45:10;;;;;;;19.88;12.75;;;;;;;;;;4902933;29;20268;-79
2021/04/19 01:47:35;;;;;;;18.35;12.38;;;;;;;;;;4902384;29;20513;-79
2021/04/19 01:50:10;;;;;;;20.23;12.40;;;;;;;;;;4906558;29;20032;-79
2021/04/19 01:52:35;;;;;;;19.45;11.55;;;;;;;;;;4907735;29;20024;-78
2021/04/19 01:55:00;;;;;;;18.27;10.93;;;;;;;;;;4904586;29;20202;-79
2021/04/19 01:57:26;;;;;;;18.73;11.23;;;;;;;;;;4902172;29;20430;-78
2021/04/19 01:59:52;;;;;;;18.27;11.20;;;;;;;;;;4904607;29;20471;-79
2021/04/19 02:02:23;;;;;;;15.05;10.40;;;;;;;;;;4901690;29;20036;-80
2021/04/19 02:05:00;;;;;;;19.73;11.73;;;;;;;;;;4905589;29;20035;-78
2021/04/19 02:07:48;;;;;;;22.08;12.20;;;;;;;;;;4903679;29;20111;-81
2021/04/19 02:10:27;;;;;;;19.77;11.50;;;;;;;;;;4905236;29;20071;-80
2021/04/19 02:12:55;;;;;;;17.98;11.52;;;;;;;;;;4907536;29;20103;-79
2021/04/19 02:15:23;;;;;;;16.98;10.77;;;;;;;;;;4902223;29;20051;-80
2021/04/19 02:17:54;;;;;;;18.73;10.65;;;;;;;;;;4905033;29;20020;-79
2021/04/19 02:20:25;;;;;;;15.45;10.10;;;;;;;;;;4910165;29;20060;-79
2021/04/19 02:22:52;;;;;;;18.40;12.48;;;;;;;;;;4910381;29;20026;-79
2021/04/19 02:25:21;;;;;;;19.80;13.20;;;;;;;;;;4889141;29;20047;-79
2021/04/19 02:27:49;;;;;;;17.30;11.45;;;;;;;;;;4904720;29;20261;-80
2021/04/19 02:30:15;;;;;;;16.85;11.00;;;;;;;;;;4904649;29;20028;-79
2021/04/19 02:32:44;;;;;;;19.15;11.95;;;;;;;;;;4911498;29;20032;-78
2021/04/19 02:35:11;;;;;;;18.98;11.32;;;;;;;;;;4908449;29;20020;-78
2021/04/19 02:37:37;;;;;;;18.52;12.10;;;;;;;;;;4910804;29;20132;-78
2021/04/19 02:40:04;;;;;;;19.13;11.45;;;;;;;;;;4908209;29;20115;-78
2021/04/19 02:42:33;;;;;;;16.75;11.40;;;;;;;;;;4889190;29;20158;-78
2021/04/19 02:44:59;;;;;;;19.45;11.55;;;;;;;;;;4907120;29;20035;-79
2021/04/19 02:47:24;;;;;;;15.43;11.20;;;;;;;;;;4909975;29;20024;-79
2021/04/19 02:49:50;;;;;;;15.35;10.80;;;;;;;;;;4907666;29;20503;-79
2021/04/19 02:52:15;;;;;;;15.50;11.02;;;;;;;;;;4907841;29;20087;-78
2021/04/19 02:54:42;;;;;;;18.48;11.68;;;;;;;;;;4910997;29;20104;-78
2021/04/19 02:57:19;;;;;;;19.67;11.77;;;;;;;;;;4909574;29;20435;-78
2021/04/19 02:59:46;;;;;;;15.63;11.45;;;;;;;;;;4907538;29;20039;-78
2021/04/19 03:02:12;;;;;;;15.90;11.00;;;;;;;;;;4901719;29;20028;-79
2021/04/19 03:04:38;;;;;;;19.27;11.38;;;;;;;;;;4905505;29;20479;-79
2021/04/19 03:07:06;;;;;;;18.58;12.15;;;;;;;;;;4902956;29;20101;-79
2021/04/19 03:09:31;;;;;;;18.25;11.23;;;;;;;;;;4907686;29;20032;-78
2021/04/19 03:11:58;;;;;;;19.80;12.47;;;;;;;;;;4907330;29;20376;-79
2021/04/19 03:14:26;;;;;;;17.67;11.80;;;;;;;;;;4907396;29;20518;-79
2021/04/19 03:16:57;;;;;;;17.88;11.80;;;;;;;;;;4911188;29;20613;-78
2021/04/19 03:19:25;;;;;;;15.90;11.48;;;;;;;;;;4907428;29;20032;-78
2021/04/19 03:21:50;;;;;;;19.48;12.50;;;;;;;;;;4905575;29;20035;-79
2021/04/19 03:24:16;;;;;;;19.40;11.93;;;;;;;;;;4905608;29;20387;-79
2021/04/19 03:26:42;;;;;;;19.33;13.05;;;;;;;;;;4909035;29;20115;-79
2021/04/19 03:29:08;;;;;;;16.92;11.98;;;;;;;;;;4906423;29;20496;-79
2021/04/19 03:31:42;;;;;;;16.55;12.18;;;;;;;;;;4909824;29;20028;-78
2021/04/19 03:34:11;;;;;;;17.08;12.23;;;;;;;;;;4905608;29;20749;-79
2021/04/19 03:36:37;;;;;;;18.27;12.10;;;;;;;;;;4904548;29;20031;-79
2021/04/19 03:39:02;;;;;;;21.30;12.80;;;;;;;;;;4906091;29;20467;-79
2021/04/19 03:41:31;;;;;;;18.25;12.00;;;;;;;;;;4910697;29;20036;-79
2021/04/19 03:43:57;;;;;;;19.40;13.00;;;;;;;;;;4907989;29;20048;-78
2021/04/19 03:46:23;;;;;;;18.45;11.95;;;;;;;;;;4906401;29;20028;-78
2021/04/19 03:48:52;;;;;;;18.70;12.82;;;;;;;;;;4899435;29;20031;-78
2021/04/19 03:51:17;;;;;;;20.90;12.75;;;;;;;;;;4900437;29;20031;-78
2021/04/19 03:53:44;;;;;;;19.85;13.38;;;;;;;;;;4910695;29;20025;-79
2021/04/19 03:56:10;;;;;;;22.23;13.98;;;;;;;;;;4907883;29;20021;-78
2021/04/19 03:58:35;;;;;;;21.58;13.90;;;;;;;;;;4909066;29;20024;-78
2021/04/19 04:01:05;;;;;;;21.50;15.18;;;;;;;;;;4906746;29;20091;-79
2021/04/19 04:03:30;;;;;;;24.45;14.23;;;;;;;;;;4904973;29;20031;-78
2021/04/19 04:05:57;;;;;;;20.52;15.50;;;;;;;;;;4908348;29;20395;-78
2021/04/19 04:08:22;;;;;;;20.63;14.70;;;;;;;;;;4907212;29;20056;-79
2021/04/19 04:10:49;;;;;;;23.88;16.70;;;;;;;;;;4909874;29;20070;-78
2021/04/19 04:13:14;;;;;;;21.52;15.13;;;;;;;;;;4900936;29;20611;-78
2021/04/19 04:15:52;;;;;;;21.52;14.82;;;;;;;;;;4905595;29;20107;-79
2021/04/19 04:18:18;;;;;;;20.13;14.70;;;;;;;;;;4903473;29;20024;-79
2021/04/19 04:20:43;;;;;;;22.13;15.05;;;;;;;;;;4910010;29;20111;-79
2021/04/19 04:23:08;;;;;;;22.60;13.77;;;;;;;;;;4908578;29;20181;-78
2021/04/19 04:25:34;;;;;;;23.92;14.63;;;;;;;;;;4909706;29;20382;-79
2021/04/19 04:28:00;;;;;;;20.25;14.80;;;;;;;;;;4909883;29;20096;-78
2021/04/19 04:30:26;;;;;;;20.85;14.35;;;;;;;;;;4904064;29;20040;-78
2021/04/19 04:32:51;;;;;;;24.08;14.95;;;;;;;;;;4908013;29;20034;-79
2021/04/19 04:35:16;;;;;;;22.77;14.70;;;;;;;;;;4905798;29;20031;-79
2021/04/19 04:37:41;;;;;;;25.20;16.08;;;;;;;;;;4908509;29;20055;-78
2021/04/19 04:40:07;;;;;;;21.70;15.17;;;;;;;;;;4906050;29;20012;-79
2021/04/19 04:42:33;;;;;;;24.67;14.52;;;;;;;;;;4902161;29;20036;-79
2021/04/19 04:44:58;;;;;;;20.17;14.15;;;;;;;;;;4898595;29;20024;-79
2021/04/19 04:47:30;;;;;;;18.20;13.13;;;;;;;;;;4910030;29;20035;-79
2021/04/19 04:49:59;;;;;;;24.42;15.40;;;;;;;;;;4908515;29;20034;-79
2021/04/19 04:52:25;;;;;;;19.27;14.73;;;;;;;;;;4905797;29;20640;-79
2021/04/19 04:54:51;;;;;;;20.75;14.95;;;;;;;;;;4903897;29;20094;-79
2021/04/19 04:57:19;;;;;;;24.30;15.97;;;;;;;;;;4909357;29;20115;-78
2021/04/19 04:59:45;;;;;;;21.20;15.02;;;;;;;;;;4905157;29;20813;-78
2021/04/19 05:02:11;;;;;;;20.85;15.35;;;;;;;;;;4903514;29;20087;-79
2021/04/19 05:04:36;;;;;;;23.42;15.80;;;;;;;;;;4905273;29;20116;-79
2021/04/19 05:07:02;;;;;;;26.73;18.52;;;;;;;;;;4906455;29;20176;-79
2021/04/19 05:09:27;;;;;;;25.83;17.48;;;;;;;;;;4907514;29;20035;-79
2021/04/19 05:11:53;;;;;;;27.02;19.55;;;;;;;;;;4906745;29;20056;-79
2021/04/19 05:14:23;;;;;;;27.33;20.08;;;;;;;;;;4903960;29;20024;-78
2021/04/19 05:16:48;;;;;;;29.90;20.40;;;;;;;;;;4902048;29;20152;-79
2021/04/19 05:19:14;;;;;;;30.97;22.03;;;;;;;;;;4907387;29;20111;-79
2021/04/19 05:21:39;;;;;;;32.07;22.77;;;;;;;;;;4909238;29;20032;-78
2021/04/19 05:24:04;;;;;;;32.57;23.10;;;;;;;;;;4904745;29;20324;-79
2021/04/19 05:26:30;;;;;;;34.90;24.60;;;;;;;;;;4905420;29;20023;-79
2021/04/19 05:28:55;;;;;;;31.42;24.15;;;;;;;;;;4903707;29;20530;-79
2021/04/19 05:31:21;;;;;;;31.45;22.88;;;;;;;;;;4909138;29;20032;-79
2021/04/19 05:33:46;;;;;;;26.17;20.55;;;;;;;;;;4907359;29;20479;-79
2021/04/19 05:36:12;;;;;;;27.92;21.13;;;;;;;;;;4903085;29;20109;-80
2021/04/19 05:38:41;;;;;;;30.33;21.65;;;;;;;;;;4886272;29;20107;-79
2021/04/19 05:41:06;;;;;;;31.60;22.35;;;;;;;;;;4904250;29;20028;-80
2021/04/19 05:43:31;;;;;;;30.43;22.57;;;;;;;;;;4908569;29;20039;-79
2021/04/19 05:45:57;;;;;;;36.05;25.13;;;;;;;;;;4907186;29;20028;-81
2021/04/19 05:48:22;;;;;;;31.98;21.88;;;;;;;;;;4904163;29;20525;-80
2021/04/19 05:50:49;;;;;;;35.50;27.10;;;;;;;;;;4902501;29;20031;-78
2021/04/19 05:53:15;;;;;;;36.67;25.75;;;;;;;;;;4906040;29;20016;-79
2021/04/19 05:55:42;;;;;;;37.22;25.67;;;;;;;;;;4908497;29;20028;-79
2021/04/19 05:58:33;;;;;;;36.75;26.55;;;;;;;;;;4883559;29;20024;-80
2021/04/19 06:01:04;;;;;;;41.03;28.83;;;;;;;;;;4904778;29;20531;-80
2021/04/19 06:03:48;;;;;;;43.00;30.65;;;;;;;;;;4900527;29;20038;-80
2021/04/19 06:06:33;;;;;;;32.85;25.50;;;;;;;;;;4908113;29;20038;-79
2021/04/19 06:09:10;;;;;;;40.30;28.42;;;;;;;;;;4907480;29;20050;-79
2021/04/19 06:11:44;;;;;;;39.60;27.92;;;;;;;;;;4908659;29;20040;-77
2021/04/19 06:14:10;;;;;;;33.88;25.02;;;;;;;;;;4876887;29;20028;-77
2021/04/19 06:16:39;;;;;;;52.67;37.10;;;;;;;;;;4907246;29;20028;-77
2021/04/19 06:19:09;;;;;;;42.67;28.60;;;;;;;;;;4909582;29;20029;-77
2021/04/19 06:21:35;;;;;;;35.25;26.05;;;;;;;;;;4906807;29;20048;-77
2021/04/19 06:24:01;;;;;;;31.77;23.70;;;;;;;;;;4865389;29;20472;-77
2021/04/19 06:26:26;;;;;;;39.65;26.92;;;;;;;;;;4902408;29;20036;-79
2021/04/19 06:28:51;;;;;;;39.67;28.10;;;;;;;;;;4903915;29;20032;-77
2021/04/19 06:31:17;;;;;;;31.07;22.40;;;;;;;;;;4883253;29;20422;-77
2021/04/19 06:33:52;;;;;;;30.60;22.65;;;;;;;;;;4906773;29;20042;-77
2021/04/19 06:36:17;;;;;;;38.33;28.35;;;;;;;;;;4904495;29;20064;-77
2021/04/19 06:38:42;;;;;;;33.63;23.13;;;;;;;;;;4902792;29;20055;-77
2021/04/19 06:41:07;;;;;;;37.73;27.73;;;;;;;;;;4901795;29;20028;-78
2021/04/19 06:43:33;;;;;;;36.60;26.48;;;;;;;;;;4909836;29;20020;-77
2021/04/19 06:45:58;;;;;;;36.17;26.83;;;;;;;;;;4882611;29;20038;-78
2021/04/19 06:48:24;;;;;;;39.42;27.05;;;;;;;;;;4908683;29;20316;-77
2021/04/19 06:50:49;;;;;;;39.58;27.30;;;;;;;;;;4899086;29;20126;-77
2021/04/19 06:53:14;;;;;;;37.40;25.17;;;;;;;;;;4903653;29;20511;-78
2021/04/19 06:55:39;;;;;;;36.88;25.75;;;;;;;;;;4898424;29;20032;-77
2021/04/19 06:58:05;;;;;;;49.30;36.83;;;;;;;;;;4904513;29;20068;-79
2021/04/19 07:00:31;;;;;;;61.47;49.25;;;;;;;;;;4908603;29;20649;-77
2021/04/19 07:02:57;;;;;;;46.53;34.25;;;;;;;;;;4881825;29;20051;-78
2021/04/19 07:05:24;;;;;;;40.75;28.50;;;;;;;;;;4877187;29;20260;-78
2021/04/19 07:07:53;;;;;;;39.92;27.88;;;;;;;;;;4904636;29;20024;-77
2021/04/19 07:10:19;;;;;;;39.28;25.95;;;;;;;;;;4904552;29;20571;-77
2021/04/19 07:12:45;;;;;;;38.88;27.63;;;;;;;;;;4907554;29;20052;-78
2021/04/19 07:15:12;;;;;;;44.42;30.35;;;;;;;;;;4908693;29;20051;-78
2021/04/19 07:17:38;;;;;;;43.50;28.40;;;;;;;;;;4889276;29;20028;-78
2021/04/19 07:20:03;;;;;;;35.83;27.45;;;;;;;;;;4904123;29;20092;-77
2021/04/19 07:22:29;;;;;;;39.63;29.42;;;;;;;;;;4908144;29;20027;-78
2021/04/19 07:24:54;;;;;;;34.05;26.45;;;;;;;;;;4903854;29;20344;-78
2021/04/19 07:27:19;;;;;;;42.38;27.05;;;;;;;;;;4906215;29;20072;-78
2021/04/19 07:29:45;;;;;;;30.08;21.63;;;;;;;;;;4910857;29;20028;-77
2021/04/19 07:32:11;;;;;;;28.20;20.25;;;;;;;;;;4907254;29;20024;-78
2021/04/19 07:34:36;;;;;;;29.83;21.13;;;;;;;;;;4889812;29;20550;-78
2021/04/19 07:37:02;;;;;;;30.17;21.63;;;;;;;;;;4906514;29;20056;-80
2021/04/19 07:39:29;;;;;;;30.58;20.63;;;;;;;;;;4907770;29;20028;-77
2021/04/19 07:41:56;;;;;;;33.47;20.77;;;;;;;;;;4908635;29;20038;-77
2021/04/19 07:44:33;;;;;;;31.67;19.13;;;;;;;;;;4903677;29;20028;-77
2021/04/19 07:47:17;;;;;;;31.20;20.23;;;;;;;;;;4904844;29;20471;-78
2021/04/19 07:49:54;;;;;;;23.23;17.17;;;;;;;;;;4896051;29;20024;-78
2021/04/19 07:52:19;;;;;;;27.92;19.67;;;;;;;;;;4900879;29;20035;-78
2021/04/19 07:54:44;;;;;;;30.73;22.20;;;;;;;;;;4911027;29;20040;-79
2021/04/19 07:57:11;;;;;;;36.77;21.33;;;;;;;;;;4907762;29;20311;-77
2021/04/19 07:59:37;;;;;;;53.25;41.13;;;;;;;;;;4901916;29;20052;-78
2021/04/19 08:02:14;;;;;;;40.80;30.58;;;;;;;;;;4901282;29;20032;-77
2021/04/19 08:04:46;;;;;;;33.63;23.40;;;;;;;;;;4897122;29;20025;-78
2021/04/19 08:07:19;;;;;;;29.30;20.30;;;;;;;;;;4887621;29;20020;-77
2021/04/19 08:10:00;;;;;;;29.02;19.45;;;;;;;;;;4910549;29;20031;-79
2021/04/19 08:12:42;;;;;;;27.70;17.15;;;;;;;;;;4909118;29;20037;-77
2021/04/19 08:15:08;;;;;;;25.60;18.08;;;;;;;;;;4899907;29;20029;-78
2021/04/19 08:17:34;;;;;;;25.83;18.85;;;;;;;;;;4897154;29;20542;-81
2021/04/19 08:20:00;;;;;;;25.90;17.70;;;;;;;;;;4903732;29;20095;-81
2021/04/19 08:22:27;;;;;;;24.85;17.38;;;;;;;;;;4905827;29;20056;-80
2021/04/19 08:25:07;;;;;;;27.58;17.95;;;;;;;;;;4903595;29;20032;-80
2021/04/19 08:27:32;;;;;;;24.38;17.23;;;;;;;;;;4906246;29;20036;-78
2021/04/19 08:29:57;;;;;;;23.27;17.23;;;;;;;;;;4907613;29;20521;-80
2021/04/19 08:32:22;;;;;;;24.57;17.63;;;;;;;;;;4904365;29;20039;-78
2021/04/19 08:34:49;;;;;;;27.10;18.88;;;;;;;;;;4906585;29;20098;-80
2021/04/19 08:37:22;;;;;;;27.13;18.65;;;;;;;;;;4909145;29;20035;-80
2021/04/19 08:39:48;;;;;;;27.52;19.88;;;;;;;;;;4908185;29;20572;-79
2021/04/19 08:42:13;;;;;;;25.63;18.35;;;;;;;;;;4903255;29;20119;-79
2021/04/19 08:44:40;;;;;;;28.55;18.38;;;;;;;;;;4907563;29;20602;-79
2021/04/19 08:47:07;;;;;;;25.20;18.20;;;;;;;;;;4899552;29;20139;-79
2021/04/19 08:49:32;;;;;;;25.40;18.55;;;;;;;;;;4902694;29;20079;-80
2021/04/19 08:51:58;;;;;;;27.00;19.10;;;;;;;;;;4903474;29;20020;-78
2021/04/19 08:54:23;;;;;;;29.27;20.55;;;;;;;;;;4908576;29;20013;-78
2021/04/19 08:56:49;;;;;;;26.45;18.35;;;;;;;;;;4907586;29;20027;-79
2021/04/19 08:59:16;;;;;;;26.85;19.33;;;;;;;;;;4905452;29;20087;-77
2021/04/19 09:01:41;;;;;;;23.40;19.08;;;;;;;;;;4906732;29;20099;-77
2021/04/19 09:04:07;;;;;;;25.08;19.25;;;;;;;;;;4904567;29;20140;-77
2021/04/19 09:06:45;;;;;;;23.00;16.58;;;;;;;;;;4903437;29;20514;-78
2021/04/19 09:09:14;;;;;;;28.05;19.88;;;;;;;;;;4882530;29;20065;-79
2021/04/19 09:11:40;;;;;;;28.10;19.90;;;;;;;;;;4898010;29;20107;-78
2021/04/19 09:14:06;;;;;;;29.10;21.83;;;;;;;;;;4899413;29;20028;-79
2021/04/19 09:16:36;;;;;;;57.97;42.42;;;;;;;;;;4901871;29;20394;-78
2021/04/19 09:19:02;;;;;;;32.97;24.33;;;;;;;;;;4899460;29;20108;-78
2021/04/19 09:21:43;;;;;;;42.25;19.25;;;;;;;;;;4902232;29;20024;-78
2021/04/19 09:24:12;;;;;;;24.50;18.23;;;;;;;;;;4906180;29;20407;-79
2021/04/19 09:27:00;;;;;;;30.27;21.05;;;;;;;;;;4905995;29;20058;-78
2021/04/19 09:29:26;;;;;;;25.38;19.30;;;;;;;;;;4899505;29;20032;-79
2021/04/19 09:31:59;;;;;;;26.75;18.95;;;;;;;;;;4904507;29;20113;-79
2021/04/19 09:34:40;;;;;;;24.77;17.25;;;;;;;;;;4907369;29;20068;-80
2021/04/19 09:37:07;;;;;;;24.67;17.63;;;;;;;;;;4904623;29;20123;-79
2021/04/19 09:39:42;;;;;;;24.23;18.70;;;;;;;;;;4904729;29;20486;-79
2021/04/19 09:42:07;;;;;;;32.53;21.63;;;;;;;;;;4905235;29;20035;-79
2021/04/19 09:44:35;;;;;;;26.27;18.27;;;;;;;;;;4897579;29;20419;-79
2021/04/19 09:47:01;;;;;;;29.75;20.75;;;;;;;;;;4902115;29;20028;-78
2021/04/19 09:49:26;;;;;;;31.13;19.33;;;;;;;;;;4900051;29;20562;-78
2021/04/19 09:51:52;;;;;;;26.88;20.35;;;;;;;;;;4887416;29;20767;-78
2021/04/19 09:54:22;;;;;;;26.95;19.65;;;;;;;;;;4902968;29;20016;-79
2021/04/19 09:56:49;;;;;;;28.63;18.70;;;;;;;;;;4909185;29;20371;-78
2021/04/19 09:59:24;;;;;;;26.38;17.90;;;;;;;;;;4904003;29;20024;-79
2021/04/19 10:01:50;;;;;;;24.30;18.90;;;;;;;;;;4901361;29;20103;-78
2021/04/19 10:04:15;;;;;;;29.35;19.25;;;;;;;;;;4901539;29;20582;-79
2021/04/19 10:06:54;;;;;;;26.98;20.85;;;;;;;;;;4905907;29;20498;-78
2021/04/19 10:09:22;;;;;;;32.05;22.38;;;;;;;;;;4905877;29;20141;-76
2021/04/19 10:11:49;;;;;;;66.97;49.20;;;;;;;;;;4906520;29;20135;-77
2021/04/19 10:14:16;;;;;;;39.88;30.67;;;;;;;;;;4899700;29;20055;-77
2021/04/19 10:16:44;;;;;;;30.35;21.65;;;;;;;;;;4902154;29;20028;-79
2021/04/19 10:19:09;;;;;;;31.08;22.52;;;;;;;;;;4908116;29;20376;-79
2021/04/19 10:21:35;;;;;;;29.67;21.13;;;;;;;;;;4907449;29;20035;-79
2021/04/19 10:24:00;;;;;;;27.55;22.77;;;;;;;;;;4899069;29;20058;-79
2021/04/19 10:26:33;;;;;;;70.57;30.38;;;;;;;;;;4903887;29;20056;-80
2021/04/19 10:29:07;;;;;;;128.38;43.45;;;;;;;;;;4902588;29;20147;-80
2021/04/19 10:31:32;;;;;;;64.38;29.88;;;;;;;;;;4905483;29;20555;-82
2021/04/19 10:33:57;;;;;;;40.07;23.10;;;;;;;;;;4903727;29;20120;-81
2021/04/19 10:36:24;;;;;;;50.87;27.50;;;;;;;;;;4900331;29;20282;-81
2021/04/19 10:39:09;;;;;;;41.70;23.67;;;;;;;;;;4901778;29;20353;-79
2021/04/19 10:41:36;;;;;;;31.15;24.05;;;;;;;;;;4899779;29;20110;-78
2021/04/19 10:44:02;;;;;;;34.00;21.92;;;;;;;;;;4902841;29;20495;-79
2021/04/19 10:46:32;;;;;;;26.20;20.83;;;;;;;;;;4910609;29;20084;-80
2021/04/19 10:48:59;;;;;;;32.58;23.20;;;;;;;;;;4901126;29;20115;-82
2021/04/19 10:51:29;;;;;;;28.90;23.00;;;;;;;;;;4899685;29;20119;-79
2021/04/19 10:53:56;;;;;;;30.60;22.15;;;;;;;;;;4904308;29;20064;-80
2021/04/19 10:56:25;;;;;;;33.88;23.45;;;;;;;;;;4905594;29;20107;-79
2021/04/19 10:58:54;;;;;;;31.67;22.87;;;;;;;;;;4906496;29;20042;-79
2021/04/19 11:01:20;;;;;;;28.13;21.13;;;;;;;;;;4901810;29;20115;-80
2021/04/19 11:03:45;;;;;;;28.15;20.65;;;;;;;;;;4908998;29;20059;-79
2021/04/19 11:06:11;;;;;;;28.25;20.60;;;;;;;;;;4906987;29;20024;-79
2021/04/19 11:08:51;;;;;;;26.03;20.10;;;;;;;;;;4907919;29;20028;-79
2021/04/19 11:11:30;;;;;;;26.13;17.52;;;;;;;;;;4903178;29;20055;-78
2021/04/19 11:14:07;;;;;;;29.70;21.70;;;;;;;;;;4907012;29;20368;-79
2021/04/19 11:16:32;;;;;;;28.15;20.40;;;;;;;;;;4906991;29;20016;-78
2021/04/19 11:18:57;;;;;;;27.67;20.77;;;;;;;;;;4909673;29;20023;-77
2021/04/19 11:21:27;;;;;;;27.83;20.10;;;;;;;;;;4906667;29;20510;-79
2021/04/19 11:24:03;;;;;;;30.45;22.55;;;;;;;;;;4892185;29;20268;-79
2021/04/19 11:26:31;;;;;;;30.23;21.73;;;;;;;;;;4903332;29;20054;-79
2021/04/19 11:28:56;;;;;;;28.73;21.52;;;;;;;;;;4905442;29;20127;-78
2021/04/19 11:31:21;;;;;;;26.33;20.03;;;;;;;;;;4902018;29;20555;-78
2021/04/19 11:33:50;;;;;;;28.50;20.15;;;;;;;;;;4901190;29;20355;-78
2021/04/19 11:36:15;;;;;;;28.98;21.20;;;;;;;;;;4903472;29;20652;-79
2021/04/19 11:38:41;;;;;;;28.17;20.80;;;;;;;;;;4908173;29;20024;-80
2021/04/19 11:41:08;;;;;;;29.45;21.33;;;;;;;;;;4903273;29;20115;-79
2021/04/19 11:43:37;;;;;;;27.55;19.48;;;;;;;;;;4907096;29;20108;-80
2021/04/19 11:46:02;;;;;;;26.48;19.17;;;;;;;;;;4906648;29;20032;-79
2021/04/19 11:48:28;;;;;;;25.88;19.75;;;;;;;;;;4910491;29;20044;-80
2021/04/19 11:50:53;;;;;;;24.20;18.30;;;;;;;;;;4901934;29;20056;-79
2021/04/19 11:53:23;;;;;;;23.42;18.08;;;;;;;;;;4899567;29;20119;-78
2021/04/19 11:55:49;;;;;;;21.50;16.67;;;;;;;;;;4906910;29;20048;-78
2021/04/19 11:58:25;;;;;;;26.35;18.83;;;;;;;;;;4907050;29;20571;-80
2021/04/19 12:00:52;;;;;;;26.92;19.35;;;;;;;;;;4905607;29;20668;-80
2021/04/19 12:03:18;;;;;;;21.98;16.48;;;;;;;;;;4902124;29;20038;-77
2021/04/19 12:05:43;;;;;;;19.65;16.35;;;;;;;;;;4900167;29;20958;-78
2021/04/19 12:08:09;;;;;;;22.83;16.90;;;;;;;;;;4901062;29;20024;-78
2021/04/19 12:10:35;;;;;;;21.77;15.88;;;;;;;;;;4908555;29;20272;-80
2021/04/19 12:13:00;;;;;;;21.10;16.35;;;;;;;;;;4908157;29;20140;-80
2021/04/19 12:15:25;;;;;;;21.70;16.03;;;;;;;;;;4899923;29;20587;-79
2021/04/19 12:17:50;;;;;;;23.77;17.88;;;;;;;;;;4907997;29;20180;-79
2021/04/19 12:20:16;;;;;;;20.43;15.03;;;;;;;;;;4905971;29;20016;-80
2021/04/19 12:22:41;;;;;;;18.47;13.33;;;;;;;;;;4904622;29;20284;-80
2021/04/19 12:25:07;;;;;;;18.45;14.85;;;;;;;;;;4900534;29;20386;-78
2021/04/19 12:27:32;;;;;;;20.05;15.32;;;;;;;;;;4904262;29;20020;-78
2021/04/19 12:29:57;;;;;;;17.20;13.50;;;;;;;;;;4910095;29;20111;-78
2021/04/19 12:32:22;;;;;;;16.30;13.40;;;;;;;;;;4904007;29;20444;-78
2021/04/19 12:34:48;;;;;;;17.80;13.40;;;;;;;;;;4903432;29;20032;-79
2021/04/19 12:37:13;;;;;;;18.67;14.93;;;;;;;;;;4900005;29;20028;-78
2021/04/19 12:39:38;;;;;;;21.53;15.53;;;;;;;;;;4903924;29;20095;-79
2021/04/19 12:42:04;;;;;;;18.97;15.00;;;;;;;;;;4905649;29;20304;-79
2021/04/19 12:44:31;;;;;;;21.33;15.30;;;;;;;;;;4907038;29;20283;-79
2021/04/19 12:46:57;;;;;;;19.70;15.13;;;;;;;;;;4901840;29;20039;-79
2021/04/19 12:49:22;;;;;;;19.95;15.18;;;;;;;;;;4903759;29;20471;-79
2021/04/19 12:51:48;;;;;;;17.25;13.82;;;;;;;;;;4907340;29;20098;-78
2021/04/19 12:54:13;;;;;;;17.60;14.13;;;;;;;;;;4902636;29;20035;-79
2021/04/19 12:56:39;;;;;;;19.42;15.52;;;;;;;;;;4885649;29;20021;-79
2021/04/19 12:59:04;;;;;;;21.63;17.15;;;;;;;;;;4904039;29;20017;-78
2021/04/19 13:01:29;;;;;;;20.45;16.55;;;;;;;;;;4902115;29;20044;-82
2021/04/19 13:03:55;;;;;;;18.02;14.05;;;;;;;;;;4899174;29;20076;-79
2021/04/19 13:06:23;;;;;;;19.63;14.73;;;;;;;;;;4902583;29;20036;-78
2021/04/19 13:08:48;;;;;;;19.33;14.45;;;;;;;;;;4904174;29;20111;-80
2021/04/19 13:11:13;;;;;;;21.17;15.27;;;;;;;;;;4907420;29;20184;-81
2021/04/19 13:13:38;;;;;;;19.95;15.40;;;;;;;;;;4909227;29;20488;-80
2021/04/19 13:16:04;;;;;;;22.47;16.03;;;;;;;;;;4897645;29;20028;-79
2021/04/19 13:18:29;;;;;;;19.88;15.75;;;;;;;;;;4905535;29;20276;-78
2021/04/19 13:20:55;;;;;;;21.58;15.75;;;;;;;;;;4904755;29;20076;-78
2021/04/19 13:23:20;;;;;;;23.67;17.38;;;;;;;;;;4905727;29;20017;-77
2021/04/19 13:25:46;;;;;;;21.42;16.48;;;;;;;;;;4907818;29;20027;-80
2021/04/19 13:28:11;;;;;;;23.43;17.40;;;;;;;;;;4902819;29;20530;-80
2021/04/19 13:30:36;;;;;;;28.33;22.37;;;;;;;;;;4902370;29;20103;-79
2021/04/19 13:33:01;;;;;;;32.10;21.30;;;;;;;;;;4898030;29;20316;-79
2021/04/19 13:35:27;;;;;;;26.25;19.65;;;;;;;;;;4906880;29;20272;-78
2021/04/19 13:37:52;;;;;;;22.52;18.65;;;;;;;;;;4902835;29;20024;-80
2021/04/19 13:40:18;;;;;;;32.23;20.40;;;;;;;;;;4902950;29;20472;-79
2021/04/19 13:42:43;;;;;;;30.73;21.00;;;;;;;;;;4904624;29;20275;-79
2021/04/19 13:45:10;;;;;;;25.85;20.85;;;;;;;;;;4908578;29;20124;-78
2021/04/19 13:47:36;;;;;;;25.15;20.27;;;;;;;;;;4904458;29;20020;-79
2021/04/19 13:50:01;;;;;;;30.25;21.15;;;;;;;;;;4906417;29;20088;-78
2021/04/19 13:52:27;;;;;;;25.83;20.25;;;;;;;;;;4905360;29;20114;-77
2021/04/19 13:54:53;;;;;;;25.08;18.60;;;;;;;;;;4909234;29;20084;-78
2021/04/19 13:57:18;;;;;;;25.27;20.15;;;;;;;;;;4900213;29;20523;-78
2021/04/19 13:59:43;;;;;;;22.13;17.80;;;;;;;;;;4908256;29;20085;-80
2021/04/19 14:02:09;;;;;;;24.73;17.87;;;;;;;;;;4886099;29;20186;-79
2021/04/19 14:04:34;;;;;;;25.97;19.63;;;;;;;;;;4899829;29;20447;-78
2021/04/19 14:06:59;;;;;;;24.98;18.55;;;;;;;;;;4896182;29;20716;-78
2021/04/19 14:09:25;;;;;;;24.37;17.87;;;;;;;;;;4904667;29;20032;-78
2021/04/19 14:11:50;;;;;;;24.13;16.38;;;;;;;;;;4900826;29;20434;-79
2021/04/19 14:14:15;;;;;;;25.00;18.43;;;;;;;;;;4906588;29;20021;-79
2021/04/19 14:16:40;;;;;;;24.13;18.33;;;;;;;;;;4909802;29;20276;-79